03:51
Airports
History
Links
Donate
Help keep this website running!
PayPal
Bitcoin
Information on this page is community maintained and may be outdated or inaccurate and is intended for reference only or PC simulator navigating!
Always use approved charts for navigating.
LFNV
Valreas Visan
Valreas Visan (LFNV)
Visan, Provence-Alpes-Côte d'Azur, France (84820)
4
Lat/Lng:44° 20' 13" N / 4° 54' 29" E
44.336945 / 4.908056
Elevation:472'ft 144mMSL
ID / ICAO:LFNV
Runways:1
Longest:(20-02) 1,030.0m 3,379ft Grass
Distance To
Airport ID:
Nearby VORs <50NM
Nearby NDBs
Nearby WeatherUpdated 03-25-17 03:30 GMT
Nearby weather at LFMO, Caritat AB located 13.7 nautical miles from LFNV
Altimeter: 29.94
Visibility: 6.2 statute miles
Wind: 6 knots (360°)
Temp: 10°c 50°f
Humidity: 87.4%

METAR: LFMO 250330Z AUTO 36006KT CAVOK 10/08 Q1014 NOSIG

(Powered by phpweather)
Runway 20 / 02
Dimensions:1030 x 50m 3379' x 164'ft
Surface:Grass
Edge Lights:Medium intensity
Runway 20 [A]Runway 02 [B]
Heading:200°TH 020°TH
Lat:
Lng:
44° 20' 28.68"N
4° 54' 36.98"E
44° 19' 57.32"N
4° 54' 21.02"E
Google Map
Nearby Airports
(U) Orange Plan de Dieu 4.3 NM
LF08 SSE 148°
4 Pierrelate 10.4 NM
LFHD WNW 295°
(U) PLAN DE DIEU 10.8 NM
LF51 S 177°
(C) Plan de Dieu 10.9 NM
8422 S 176°
4 Pont-St Esprit 13.5 NM
LFND WSW 249°
(C) Caritat AB 13.7 NM
LFMO (WX) S 188°
(C) Montelimar Ancone 18.8 NM
LFLQ (WX) NNW 333°
VFR Chart
Flight Planning at SkyVector.com